sensor_id;sensor_type;location;lat;lon;timestamp;P1;durP1;ratioP1;P2;durP2;ratioP2
74510;SDS011;62991;50.040;18.400;2023-08-01T00:02:12;4.43;;;2.10;;
74510;SDS011;62991;50.040;18.400;2023-08-01T00:05:13;5.25;;;2.33;;
74510;SDS011;62991;50.040;18.400;2023-08-01T00:08:13;4.28;;;1.80;;
74510;SDS011;62991;50.040;18.400;2023-08-01T00:11:14;7.00;;;2.10;;
74510;SDS011;62991;50.040;18.400;2023-08-01T00:14:16;7.05;;;2.33;;
74510;SDS011;62991;50.040;18.400;2023-08-01T00:17:17;4.90;;;2.00;;
74510;SDS011;62991;50.040;18.400;2023-08-01T00:20:18;4.93;;;1.98;;
74510;SDS011;62991;50.040;18.400;2023-08-01T00:23:18;9.45;;;2.10;;
74510;SDS011;62991;50.040;18.400;2023-08-01T00:26:20;6.85;;;2.60;;
74510;SDS011;62991;50.040;18.400;2023-08-01T00:29:20;5.55;;;1.98;;
74510;SDS011;62991;50.040;18.400;2023-08-01T00:32:22;7.28;;;1.95;;
74510;SDS011;62991;50.040;18.400;2023-08-01T00:35:22;5.50;;;2.10;;
74510;SDS011;62991;50.040;18.400;2023-08-01T00:38:23;4.32;;;1.70;;
74510;SDS011;62991;50.040;18.400;2023-08-01T00:41:24;5.68;;;2.33;;
74510;SDS011;62991;50.040;18.400;2023-08-01T00:44:24;6.82;;;2.15;;
74510;SDS011;62991;50.040;18.400;2023-08-01T00:47:25;4.63;;;2.10;;
74510;SDS011;62991;50.040;18.400;2023-08-01T00:50:26;9.02;;;1.92;;
74510;SDS011;62991;50.040;18.400;2023-08-01T00:53:26;5.25;;;2.00;;
74510;SDS011;62991;50.040;18.400;2023-08-01T00:56:28;7.95;;;2.13;;
74510;SDS011;62991;50.040;18.400;2023-08-01T00:59:29;3.80;;;2.10;;
74510;SDS011;62991;50.040;18.400;2023-08-01T01:02:30;5.60;;;1.98;;
74510;SDS011;62991;50.040;18.400;2023-08-01T01:05:35;5.00;;;2.20;;
74510;SDS011;62991;50.040;18.400;2023-08-01T01:08:38;6.15;;;2.15;;
74510;SDS011;62991;50.040;18.400;2023-08-01T01:11:39;4.45;;;2.00;;
74510;SDS011;62991;50.040;18.400;2023-08-01T01:14:40;4.15;;;2.00;;
74510;SDS011;62991;50.040;18.400;2023-08-01T01:17:40;5.38;;;2.40;;
74510;SDS011;62991;50.040;18.400;2023-08-01T01:20:41;7.40;;;2.28;;
74510;SDS011;62991;50.040;18.400;2023-08-01T01:23:42;6.53;;;2.28;;
74510;SDS011;62991;50.040;18.400;2023-08-01T01:26:44;5.07;;;1.90;;
74510;SDS011;62991;50.040;18.400;2023-08-01T01:29:46;4.25;;;1.90;;
74510;SDS011;62991;50.040;18.400;2023-08-01T01:32:48;4.47;;;1.90;;
74510;SDS011;62991;50.040;18.400;2023-08-01T01:35:49;5.43;;;2.35;;
74510;SDS011;62991;50.040;18.400;2023-08-01T01:38:50;4.15;;;1.75;;
74510;SDS011;62991;50.040;18.400;2023-08-01T01:41:50;3.65;;;1.80;;
74510;SDS011;62991;50.040;18.400;2023-08-01T01:44:51;5.32;;;1.85;;
74510;SDS011;62991;50.040;18.400;2023-08-01T01:47:52;4.63;;;1.92;;
74510;SDS011;62991;50.040;18.400;2023-08-01T01:50:53;5.13;;;1.83;;
74510;SDS011;62991;50.040;18.400;2023-08-01T01:53:53;4.30;;;1.60;;
74510;SDS011;62991;50.040;18.400;2023-08-01T01:56:54;3.88;;;1.95;;
74510;SDS011;62991;50.040;18.400;2023-08-01T01:59:55;5.70;;;2.00;;
74510;SDS011;62991;50.040;18.400;2023-08-01T02:02:55;5.15;;;1.88;;
74510;SDS011;62991;50.040;18.400;2023-08-01T02:05:56;3.03;;;1.63;;
74510;SDS011;62991;50.040;18.400;2023-08-01T02:08:57;5.45;;;2.00;;
74510;SDS011;62991;50.040;18.400;2023-08-01T02:11:57;2.75;;;1.30;;
74510;SDS011;62991;50.040;18.400;2023-08-01T02:14:58;2.58;;;1.38;;
74510;SDS011;62991;50.040;18.400;2023-08-01T02:17:59;2.85;;;1.63;;
74510;SDS011;62991;50.040;18.400;2023-08-01T02:20:59;2.75;;;1.33;;
74510;SDS011;62991;50.040;18.400;2023-08-01T02:24:00;3.58;;;1.65;;
74510;SDS011;62991;50.040;18.400;2023-08-01T02:27:01;4.22;;;1.83;;
74510;SDS011;62991;50.040;18.400;2023-08-01T02:30:01;3.22;;;1.30;;
74510;SDS011;62991;50.040;18.400;2023-08-01T02:33:02;3.95;;;1.70;;
74510;SDS011;62991;50.040;18.400;2023-08-01T02:36:03;6.65;;;1.70;;
74510;SDS011;62991;50.040;18.400;2023-08-01T02:39:04;3.33;;;1.40;;
74510;SDS011;62991;50.040;18.400;2023-08-01T02:42:05;4.53;;;1.70;;
74510;SDS011;62991;50.040;18.400;2023-08-01T02:45:06;4.40;;;1.67;;
74510;SDS011;62991;50.040;18.400;2023-08-01T02:48:07;6.97;;;2.13;;
74510;SDS011;62991;50.040;18.400;2023-08-01T02:51:07;3.92;;;1.70;;
74510;SDS011;62991;50.040;18.400;2023-08-01T02:54:09;3.47;;;1.90;;
74510;SDS011;62991;50.040;18.400;2023-08-01T02:57:12;7.20;;;1.90;;
74510;SDS011;62991;50.040;18.400;2023-08-01T03:00:13;4.68;;;2.03;;
74510;SDS011;62991;50.040;18.400;2023-08-01T03:03:14;3.63;;;2.05;;
74510;SDS011;62991;50.040;18.400;2023-08-01T03:06:15;7.43;;;2.20;;
74510;SDS011;62991;50.040;18.400;2023-08-01T03:09:16;5.53;;;1.90;;
74510;SDS011;62991;50.040;18.400;2023-08-01T03:12:16;5.30;;;2.38;;
74510;SDS011;62991;50.040;18.400;2023-08-01T03:15:17;4.85;;;2.17;;
74510;SDS011;62991;50.040;18.400;2023-08-01T03:18:18;5.45;;;2.50;;
74510;SDS011;62991;50.040;18.400;2023-08-01T03:21:18;5.43;;;2.50;;
74510;SDS011;62991;50.040;18.400;2023-08-01T03:24:19;2.10;;;1.42;;
74510;SDS011;62991;50.040;18.400;2023-08-01T03:27:20;4.45;;;1.60;;
74510;SDS011;62991;50.040;18.400;2023-08-01T03:30:20;6.03;;;2.03;;
74510;SDS011;62991;50.040;18.400;2023-08-01T03:33:21;3.83;;;2.00;;
74510;SDS011;62991;50.040;18.400;2023-08-01T03:36:22;5.22;;;1.80;;
74510;SDS011;62991;50.040;18.400;2023-08-01T03:39:23;3.38;;;1.52;;
74510;SDS011;62991;50.040;18.400;2023-08-01T03:42:23;4.30;;;1.90;;
74510;SDS011;62991;50.040;18.400;2023-08-01T03:45:24;3.72;;;1.95;;
74510;SDS011;62991;50.040;18.400;2023-08-01T03:48:25;8.55;;;1.92;;
74510;SDS011;62991;50.040;18.400;2023-08-01T03:51:25;4.78;;;2.00;;
74510;SDS011;62991;50.040;18.400;2023-08-01T03:54:26;4.97;;;1.70;;
74510;SDS011;62991;50.040;18.400;2023-08-01T03:57:27;6.05;;;2.28;;
74510;SDS011;62991;50.040;18.400;2023-08-01T04:00:28;4.90;;;2.20;;
74510;SDS011;62991;50.040;18.400;2023-08-01T04:03:32;5.85;;;2.58;;
74510;SDS011;62991;50.040;18.400;2023-08-01T04:06:33;6.07;;;2.33;;
74510;SDS011;62991;50.040;18.400;2023-08-01T04:09:33;3.67;;;2.08;;
74510;SDS011;62991;50.040;18.400;2023-08-01T04:12:34;8.75;;;2.08;;
74510;SDS011;62991;50.040;18.400;2023-08-01T04:15:35;8.38;;;1.70;;
74510;SDS011;62991;50.040;18.400;2023-08-01T04:18:35;5.03;;;1.98;;
74510;SDS011;62991;50.040;18.400;2023-08-01T04:21:36;4.80;;;2.10;;
74510;SDS011;62991;50.040;18.400;2023-08-01T04:24:37;4.57;;;2.20;;
74510;SDS011;62991;50.040;18.400;2023-08-01T04:27:37;4.10;;;1.98;;
74510;SDS011;62991;50.040;18.400;2023-08-01T04:30:38;4.10;;;1.70;;
74510;SDS011;62991;50.040;18.400;2023-08-01T04:33:39;5.28;;;1.70;;
74510;SDS011;62991;50.040;18.400;2023-08-01T04:36:39;3.45;;;1.85;;
74510;SDS011;62991;50.040;18.400;2023-08-01T04:39:43;3.53;;;2.08;;
74510;SDS011;62991;50.040;18.400;2023-08-01T04:42:44;4.65;;;1.83;;
74510;SDS011;62991;50.040;18.400;2023-08-01T04:45:45;3.75;;;1.70;;
74510;SDS011;62991;50.040;18.400;2023-08-01T04:48:45;6.57;;;2.20;;
74510;SDS011;62991;50.040;18.400;2023-08-01T04:51:48;6.05;;;2.22;;
74510;SDS011;62991;50.040;18.400;2023-08-01T04:54:49;6.10;;;1.90;;
74510;SDS011;62991;50.040;18.400;2023-08-01T04:57:50;5.25;;;2.10;;
74510;SDS011;62991;50.040;18.400;2023-08-01T05:00:51;4.85;;;2.17;;
74510;SDS011;62991;50.040;18.400;2023-08-01T05:03:51;10.93;;;2.45;;
74510;SDS011;62991;50.040;18.400;2023-08-01T05:06:52;5.30;;;2.17;;
74510;SDS011;62991;50.040;18.400;2023-08-01T05:09:53;6.90;;;2.53;;
74510;SDS011;62991;50.040;18.400;2023-08-01T05:12:53;4.40;;;2.22;;
74510;SDS011;62991;50.040;18.400;2023-08-01T05:15:54;8.27;;;2.50;;
74510;SDS011;62991;50.040;18.400;2023-08-01T05:18:55;6.50;;;2.47;;
74510;SDS011;62991;50.040;18.400;2023-08-01T05:21:55;5.55;;;2.20;;
74510;SDS011;62991;50.040;18.400;2023-08-01T05:24:56;5.45;;;2.20;;
74510;SDS011;62991;50.040;18.400;2023-08-01T05:27:57;7.50;;;2.20;;
74510;SDS011;62991;50.040;18.400;2023-08-01T05:30:57;4.90;;;2.40;;
74510;SDS011;62991;50.040;18.400;2023-08-01T05:33:58;5.72;;;2.17;;
74510;SDS011;62991;50.040;18.400;2023-08-01T05:36:59;3.97;;;2.00;;
74510;SDS011;62991;50.040;18.400;2023-08-01T05:39:59;5.63;;;2.30;;
74510;SDS011;62991;50.040;18.400;2023-08-01T05:43:00;5.90;;;2.80;;
74510;SDS011;62991;50.040;18.400;2023-08-01T05:46:01;5.18;;;2.08;;
74510;SDS011;62991;50.040;18.400;2023-08-01T05:49:02;4.43;;;1.90;;
74510;SDS011;62991;50.040;18.400;2023-08-01T05:52:03;3.42;;;2.03;;
74510;SDS011;62991;50.040;18.400;2023-08-01T05:55:04;6.60;;;2.38;;
74510;SDS011;62991;50.040;18.400;2023-08-01T05:58:05;5.45;;;2.28;;
74510;SDS011;62991;50.040;18.400;2023-08-01T06:01:06;6.22;;;2.00;;
74510;SDS011;62991;50.040;18.400;2023-08-01T06:04:07;4.13;;;2.47;;
74510;SDS011;62991;50.040;18.400;2023-08-01T06:07:08;5.55;;;2.45;;
74510;SDS011;62991;50.040;18.400;2023-08-01T06:10:08;4.32;;;2.47;;
74510;SDS011;62991;50.040;18.400;2023-08-01T06:13:09;6.78;;;2.33;;
74510;SDS011;62991;50.040;18.400;2023-08-01T06:16:10;7.32;;;2.28;;
74510;SDS011;62991;50.040;18.400;2023-08-01T06:19:11;4.80;;;2.40;;
74510;SDS011;62991;50.040;18.400;2023-08-01T06:22:11;10.55;;;2.53;;
74510;SDS011;62991;50.040;18.400;2023-08-01T06:25:12;6.70;;;2.50;;
74510;SDS011;62991;50.040;18.400;2023-08-01T06:28:13;4.05;;;2.60;;
74510;SDS011;62991;50.040;18.400;2023-08-01T06:31:13;4.60;;;2.35;;
74510;SDS011;62991;50.040;18.400;2023-08-01T06:34:14;4.95;;;2.53;;
74510;SDS011;62991;50.040;18.400;2023-08-01T06:37:15;7.05;;;2.30;;
74510;SDS011;62991;50.040;18.400;2023-08-01T06:40:15;6.00;;;2.50;;
74510;SDS011;62991;50.040;18.400;2023-08-01T06:43:16;3.47;;;2.22;;
74510;SDS011;62991;50.040;18.400;2023-08-01T06:46:17;7.03;;;2.30;;
74510;SDS011;62991;50.040;18.400;2023-08-01T06:49:17;4.45;;;2.45;;
74510;SDS011;62991;50.040;18.400;2023-08-01T06:52:18;4.70;;;2.58;;
74510;SDS011;62991;50.040;18.400;2023-08-01T06:55:19;5.90;;;2.78;;
74510;SDS011;62991;50.040;18.400;2023-08-01T06:58:20;4.05;;;2.38;;
74510;SDS011;62991;50.040;18.400;2023-08-01T07:01:23;5.90;;;3.05;;
74510;SDS011;62991;50.040;18.400;2023-08-01T07:04:24;6.78;;;3.13;;
74510;SDS011;62991;50.040;18.400;2023-08-01T07:07:25;7.72;;;3.50;;
74510;SDS011;62991;50.040;18.400;2023-08-01T07:10:25;10.23;;;4.38;;
74510;SDS011;62991;50.040;18.400;2023-08-01T07:13:26;7.10;;;3.65;;
74510;SDS011;62991;50.040;18.400;2023-08-01T07:16:27;8.23;;;4.00;;
74510;SDS011;62991;50.040;18.400;2023-08-01T07:19:27;11.00;;;3.35;;
74510;SDS011;62991;50.040;18.400;2023-08-01T07:22:28;7.70;;;2.97;;
74510;SDS011;62991;50.040;18.400;2023-08-01T07:25:29;7.78;;;3.15;;
74510;SDS011;62991;50.040;18.400;2023-08-01T07:28:29;7.40;;;2.92;;
74510;SDS011;62991;50.040;18.400;2023-08-01T07:31:30;9.45;;;2.53;;
74510;SDS011;62991;50.040;18.400;2023-08-01T07:34:31;6.35;;;2.38;;
74510;SDS011;62991;50.040;18.400;2023-08-01T07:37:34;4.85;;;2.58;;
74510;SDS011;62991;50.040;18.400;2023-08-01T07:40:37;5.63;;;2.35;;
74510;SDS011;62991;50.040;18.400;2023-08-01T07:43:38;7.35;;;2.55;;
74510;SDS011;62991;50.040;18.400;2023-08-01T07:46:39;5.20;;;2.55;;
74510;SDS011;62991;50.040;18.400;2023-08-01T07:49:39;6.93;;;3.17;;
74510;SDS011;62991;50.040;18.400;2023-08-01T07:52:40;7.68;;;3.20;;
74510;SDS011;62991;50.040;18.400;2023-08-01T07:55:41;7.95;;;2.90;;
74510;SDS011;62991;50.040;18.400;2023-08-01T07:58:41;5.70;;;3.03;;
74510;SDS011;62991;50.040;18.400;2023-08-01T08:01:42;4.72;;;2.70;;
74510;SDS011;62991;50.040;18.400;2023-08-01T08:04:43;6.32;;;3.08;;
74510;SDS011;62991;50.040;18.400;2023-08-01T08:07:43;10.45;;;2.80;;
74510;SDS011;62991;50.040;18.400;2023-08-01T08:10:44;7.18;;;2.30;;
74510;SDS011;62991;50.040;18.400;2023-08-01T08:13:45;4.15;;;2.35;;
74510;SDS011;62991;50.040;18.400;2023-08-01T08:16:45;3.90;;;2.20;;
74510;SDS011;62991;50.040;18.400;2023-08-01T08:19:46;4.32;;;2.35;;
74510;SDS011;62991;50.040;18.400;2023-08-01T08:22:47;7.93;;;2.75;;
74510;SDS011;62991;50.040;18.400;2023-08-01T08:25:48;4.88;;;2.67;;
74510;SDS011;62991;50.040;18.400;2023-08-01T08:28:50;4.40;;;2.90;;
74510;SDS011;62991;50.040;18.400;2023-08-01T08:31:50;5.70;;;2.22;;
74510;SDS011;62991;50.040;18.400;2023-08-01T08:34:51;6.03;;;2.67;;
74510;SDS011;62991;50.040;18.400;2023-08-01T08:37:52;6.70;;;2.60;;
74510;SDS011;62991;50.040;18.400;2023-08-01T08:40:59;4.32;;;2.00;;
74510;SDS011;62991;50.040;18.400;2023-08-01T08:44:06;7.28;;;3.13;;
74510;SDS011;62991;50.040;18.400;2023-08-01T08:47:09;5.28;;;2.95;;
74510;SDS011;62991;50.040;18.400;2023-08-01T08:50:12;7.50;;;2.95;;
74510;SDS011;62991;50.040;18.400;2023-08-01T08:53:14;9.35;;;2.22;;
74510;SDS011;62991;50.040;18.400;2023-08-01T08:56:15;4.68;;;2.60;;
74510;SDS011;62991;50.040;18.400;2023-08-01T08:59:16;7.13;;;2.65;;
74510;SDS011;62991;50.040;18.400;2023-08-01T09:02:18;4.90;;;2.50;;
74510;SDS011;62991;50.040;18.400;2023-08-01T09:05:21;5.35;;;2.65;;
74510;SDS011;62991;50.040;18.400;2023-08-01T09:08:27;4.38;;;2.35;;
74510;SDS011;62991;50.040;18.400;2023-08-01T09:11:53;3.25;;;2.10;;
74510;SDS011;62991;50.040;18.400;2023-08-01T09:14:56;4.57;;;1.90;;
74510;SDS011;62991;50.040;18.400;2023-08-01T09:17:57;6.70;;;1.67;;
74510;SDS011;62991;50.040;18.400;2023-08-01T09:21:00;2.10;;;1.17;;
74510;SDS011;62991;50.040;18.400;2023-08-01T09:24:12;5.43;;;2.30;;
74510;SDS011;62991;50.040;18.400;2023-08-01T09:27:17;3.40;;;1.83;;
74510;SDS011;62991;50.040;18.400;2023-08-01T09:30:20;3.95;;;2.25;;
74510;SDS011;62991;50.040;18.400;2023-08-01T09:33:21;6.40;;;1.88;;
74510;SDS011;62991;50.040;18.400;2023-08-01T09:36:22;5.70;;;2.30;;
74510;SDS011;62991;50.040;18.400;2023-08-01T09:39:24;4.18;;;2.08;;
74510;SDS011;62991;50.040;18.400;2023-08-01T09:42:25;5.63;;;2.25;;
74510;SDS011;62991;50.040;18.400;2023-08-01T09:45:26;4.85;;;2.05;;
74510;SDS011;62991;50.040;18.400;2023-08-01T09:48:28;4.45;;;2.17;;
74510;SDS011;62991;50.040;18.400;2023-08-01T09:51:29;2.88;;;1.40;;
74510;SDS011;62991;50.040;18.400;2023-08-01T09:54:30;4.50;;;2.67;;
74510;SDS011;62991;50.040;18.400;2023-08-01T09:57:31;4.10;;;2.10;;
74510;SDS011;62991;50.040;18.400;2023-08-01T10:00:32;5.70;;;2.97;;
74510;SDS011;62991;50.040;18.400;2023-08-01T10:03:33;4.28;;;2.20;;
74510;SDS011;62991;50.040;18.400;2023-08-01T10:06:35;2.67;;;1.67;;
74510;SDS011;62991;50.040;18.400;2023-08-01T10:09:37;6.40;;;1.90;;
74510;SDS011;62991;50.040;18.400;2023-08-01T10:12:39;5.13;;;2.35;;
74510;SDS011;62991;50.040;18.400;2023-08-01T10:15:45;6.20;;;2.58;;
74510;SDS011;62991;50.040;18.400;2023-08-01T10:18:46;6.07;;;2.20;;
74510;SDS011;62991;50.040;18.400;2023-08-01T10:21:47;4.18;;;2.35;;
74510;SDS011;62991;50.040;18.400;2023-08-01T10:24:48;3.95;;;1.92;;
74510;SDS011;62991;50.040;18.400;2023-08-01T10:27:57;3.92;;;2.03;;
74510;SDS011;62991;50.040;18.400;2023-08-01T10:34:12;4.50;;;2.40;;
74510;SDS011;62991;50.040;18.400;2023-08-01T10:37:14;6.60;;;2.35;;
74510;SDS011;62991;50.040;18.400;2023-08-01T10:40:14;5.30;;;2.53;;
74510;SDS011;62991;50.040;18.400;2023-08-01T10:43:21;6.38;;;2.20;;
74510;SDS011;62991;50.040;18.400;2023-08-01T10:46:23;3.42;;;2.17;;
74510;SDS011;62991;50.040;18.400;2023-08-01T10:49:33;5.53;;;2.33;;
74510;SDS011;62991;50.040;18.400;2023-08-01T10:52:34;3.58;;;2.25;;
74510;SDS011;62991;50.040;18.400;2023-08-01T10:55:42;4.93;;;1.90;;
74510;SDS011;62991;50.040;18.400;2023-08-01T10:58:47;7.93;;;2.20;;
74510;SDS011;62991;50.040;18.400;2023-08-01T11:01:57;3.47;;;1.90;;
74510;SDS011;62991;50.040;18.400;2023-08-01T11:05:04;3.53;;;1.75;;
74510;SDS011;62991;50.040;18.400;2023-08-01T11:08:06;8.45;;;2.38;;
74510;SDS011;62991;50.040;18.400;2023-08-01T11:11:07;11.10;;;2.40;;
74510;SDS011;62991;50.040;18.400;2023-08-01T11:14:11;5.15;;;2.17;;
74510;SDS011;62991;50.040;18.400;2023-08-01T11:17:13;4.13;;;2.10;;
74510;SDS011;62991;50.040;18.400;2023-08-01T11:20:14;4.80;;;2.47;;
74510;SDS011;62991;50.040;18.400;2023-08-01T11:23:15;3.83;;;2.08;;
74510;SDS011;62991;50.040;18.400;2023-08-01T11:26:16;8.10;;;2.75;;
74510;SDS011;62991;50.040;18.400;2023-08-01T11:29:17;7.22;;;2.50;;
74510;SDS011;62991;50.040;18.400;2023-08-01T11:32:19;5.78;;;2.70;;
74510;SDS011;62991;50.040;18.400;2023-08-01T11:35:23;5.40;;;2.50;;
74510;SDS011;62991;50.040;18.400;2023-08-01T11:38:24;4.10;;;2.22;;
74510;SDS011;62991;50.040;18.400;2023-08-01T11:41:26;5.15;;;2.20;;
74510;SDS011;62991;50.040;18.400;2023-08-01T11:44:27;7.68;;;2.65;;
74510;SDS011;62991;50.040;18.400;2023-08-01T11:47:28;4.35;;;2.20;;
74510;SDS011;62991;50.040;18.400;2023-08-01T11:50:29;4.80;;;2.35;;
74510;SDS011;62991;50.040;18.400;2023-08-01T11:53:30;6.35;;;3.08;;
74510;SDS011;62991;50.040;18.400;2023-08-01T11:56:38;6.32;;;2.30;;
74510;SDS011;62991;50.040;18.400;2023-08-01T11:59:46;5.85;;;2.88;;
74510;SDS011;62991;50.040;18.400;2023-08-01T12:02:48;4.95;;;2.15;;
74510;SDS011;62991;50.040;18.400;2023-08-01T12:05:49;4.45;;;2.22;;
74510;SDS011;62991;50.040;18.400;2023-08-01T12:08:50;4.18;;;2.42;;
74510;SDS011;62991;50.040;18.400;2023-08-01T12:11:57;5.32;;;2.80;;
74510;SDS011;62991;50.040;18.400;2023-08-01T12:15:04;3.92;;;2.25;;
74510;SDS011;62991;50.040;18.400;2023-08-01T12:18:05;4.82;;;2.03;;
74510;SDS011;62991;50.040;18.400;2023-08-01T12:21:06;5.18;;;2.80;;
74510;SDS011;62991;50.040;18.400;2023-08-01T12:24:06;4.20;;;2.30;;
74510;SDS011;62991;50.040;18.400;2023-08-01T12:27:07;4.88;;;2.47;;
74510;SDS011;62991;50.040;18.400;2023-08-01T12:30:09;4.50;;;2.40;;
74510;SDS011;62991;50.040;18.400;2023-08-01T12:33:10;6.07;;;2.40;;
74510;SDS011;62991;50.040;18.400;2023-08-01T12:36:11;4.97;;;2.38;;
74510;SDS011;62991;50.040;18.400;2023-08-01T12:39:12;6.57;;;2.50;;
74510;SDS011;62991;50.040;18.400;2023-08-01T12:42:13;6.22;;;3.08;;
74510;SDS011;62991;50.040;18.400;2023-08-01T12:45:14;4.78;;;2.80;;
74510;SDS011;62991;50.040;18.400;2023-08-01T12:48:14;6.00;;;3.00;;
74510;SDS011;62991;50.040;18.400;2023-08-01T12:51:15;5.32;;;2.65;;
74510;SDS011;62991;50.040;18.400;2023-08-01T12:54:16;4.45;;;2.30;;
74510;SDS011;62991;50.040;18.400;2023-08-01T12:57:16;6.22;;;2.15;;
74510;SDS011;62991;50.040;18.400;2023-08-01T13:00:17;6.40;;;2.35;;
74510;SDS011;62991;50.040;18.400;2023-08-01T13:03:18;4.35;;;2.40;;
74510;SDS011;62991;50.040;18.400;2023-08-01T13:06:19;4.60;;;2.08;;
74510;SDS011;62991;50.040;18.400;2023-08-01T13:09:20;7.25;;;3.00;;
74510;SDS011;62991;50.040;18.400;2023-08-01T13:12:20;7.65;;;2.88;;
74510;SDS011;62991;50.040;18.400;2023-08-01T13:15:21;4.38;;;2.38;;
74510;SDS011;62991;50.040;18.400;2023-08-01T13:18:22;5.65;;;3.22;;
74510;SDS011;62991;50.040;18.400;2023-08-01T13:21:22;7.15;;;3.88;;
74510;SDS011;62991;50.040;18.400;2023-08-01T13:24:23;7.82;;;3.17;;
74510;SDS011;62991;50.040;18.400;2023-08-01T13:27:24;4.15;;;2.40;;
74510;SDS011;62991;50.040;18.400;2023-08-01T13:30:25;7.57;;;2.67;;
74510;SDS011;62991;50.040;18.400;2023-08-01T13:33:25;6.43;;;3.08;;
74510;SDS011;62991;50.040;18.400;2023-08-01T13:36:26;4.93;;;2.45;;
74510;SDS011;62991;50.040;18.400;2023-08-01T13:39:27;5.60;;;2.78;;
74510;SDS011;62991;50.040;18.400;2023-08-01T13:42:27;4.28;;;2.10;;
74510;SDS011;62991;50.040;18.400;2023-08-01T13:45:31;5.95;;;2.40;;
74510;SDS011;62991;50.040;18.400;2023-08-01T13:48:32;6.30;;;2.63;;
74510;SDS011;62991;50.040;18.400;2023-08-01T13:51:32;6.00;;;2.42;;
74510;SDS011;62991;50.040;18.400;2023-08-01T13:54:34;4.85;;;2.75;;
74510;SDS011;62991;50.040;18.400;2023-08-01T13:57:34;6.63;;;2.70;;
74510;SDS011;62991;50.040;18.400;2023-08-01T14:00:35;9.27;;;3.17;;
74510;SDS011;62991;50.040;18.400;2023-08-01T14:03:36;5.50;;;2.20;;
74510;SDS011;62991;50.040;18.400;2023-08-01T14:06:38;6.35;;;2.80;;
74510;SDS011;62991;50.040;18.400;2023-08-01T14:09:40;4.72;;;2.05;;
74510;SDS011;62991;50.040;18.400;2023-08-01T14:12:40;5.88;;;2.33;;
74510;SDS011;62991;50.040;18.400;2023-08-01T14:15:41;7.07;;;2.60;;
74510;SDS011;62991;50.040;18.400;2023-08-01T14:18:42;5.65;;;2.00;;
74510;SDS011;62991;50.040;18.400;2023-08-01T14:21:44;4.57;;;2.30;;
74510;SDS011;62991;50.040;18.400;2023-08-01T14:24:44;6.20;;;2.15;;
74510;SDS011;62991;50.040;18.400;2023-08-01T14:27:45;4.20;;;1.92;;
74510;SDS011;62991;50.040;18.400;2023-08-01T14:30:46;5.82;;;2.88;;
74510;SDS011;62991;50.040;18.400;2023-08-01T14:33:47;5.13;;;2.38;;
74510;SDS011;62991;50.040;18.400;2023-08-01T14:36:47;3.83;;;2.08;;
74510;SDS011;62991;50.040;18.400;2023-08-01T14:39:48;7.65;;;2.20;;
74510;SDS011;62991;50.040;18.400;2023-08-01T14:42:49;3.80;;;2.03;;
74510;SDS011;62991;50.040;18.400;2023-08-01T14:45:50;6.90;;;2.28;;
74510;SDS011;62991;50.040;18.400;2023-08-01T14:48:51;6.15;;;2.50;;
74510;SDS011;62991;50.040;18.400;2023-08-01T14:51:51;6.53;;;2.05;;
74510;SDS011;62991;50.040;18.400;2023-08-01T14:54:52;5.50;;;2.45;;
74510;SDS011;62991;50.040;18.400;2023-08-01T14:57:53;3.97;;;1.70;;
74510;SDS011;62991;50.040;18.400;2023-08-01T15:00:53;3.42;;;1.80;;
74510;SDS011;62991;50.040;18.400;2023-08-01T15:03:54;6.38;;;2.15;;
74510;SDS011;62991;50.040;18.400;2023-08-01T15:06:55;5.78;;;1.83;;
74510;SDS011;62991;50.040;18.400;2023-08-01T15:09:55;4.68;;;1.90;;
74510;SDS011;62991;50.040;18.400;2023-08-01T15:12:56;5.80;;;2.22;;
74510;SDS011;62991;50.040;18.400;2023-08-01T15:15:57;4.80;;;1.88;;
74510;SDS011;62991;50.040;18.400;2023-08-01T15:18:57;3.70;;;2.10;;
74510;SDS011;62991;50.040;18.400;2023-08-01T15:21:58;2.05;;;0.65;;
74510;SDS011;62991;50.040;18.400;2023-08-01T15:24:59;3.20;;;1.70;;
74510;SDS011;62991;50.040;18.400;2023-08-01T15:28:00;4.15;;;1.70;;
74510;SDS011;62991;50.040;18.400;2023-08-01T15:31:09;4.07;;;1.55;;
74510;SDS011;62991;50.040;18.400;2023-08-01T15:34:10;3.90;;;2.25;;
74510;SDS011;62991;50.040;18.400;2023-08-01T15:37:11;4.18;;;1.65;;
74510;SDS011;62991;50.040;18.400;2023-08-01T15:40:11;3.90;;;2.15;;
74510;SDS011;62991;50.040;18.400;2023-08-01T15:43:12;4.15;;;1.92;;
74510;SDS011;62991;50.040;18.400;2023-08-01T15:46:13;6.40;;;2.97;;
74510;SDS011;62991;50.040;18.400;2023-08-01T15:49:14;5.60;;;2.78;;
74510;SDS011;62991;50.040;18.400;2023-08-01T15:52:15;3.75;;;2.10;;
74510;SDS011;62991;50.040;18.400;2023-08-01T15:55:15;5.63;;;2.25;;
74510;SDS011;62991;50.040;18.400;2023-08-01T15:58:16;5.25;;;1.98;;
74510;SDS011;62991;50.040;18.400;2023-08-01T16:01:17;4.75;;;2.20;;
74510;SDS011;62991;50.040;18.400;2023-08-01T16:04:17;4.88;;;1.88;;
74510;SDS011;62991;50.040;18.400;2023-08-01T16:07:18;3.40;;;2.17;;
74510;SDS011;62991;50.040;18.400;2023-08-01T16:10:19;5.63;;;2.47;;
74510;SDS011;62991;50.040;18.400;2023-08-01T16:13:19;7.45;;;3.20;;
74510;SDS011;62991;50.040;18.400;2023-08-01T16:16:20;8.10;;;2.78;;
74510;SDS011;62991;50.040;18.400;2023-08-01T16:19:21;5.13;;;2.17;;
74510;SDS011;62991;50.040;18.400;2023-08-01T16:22:22;5.38;;;2.35;;
74510;SDS011;62991;50.040;18.400;2023-08-01T16:25:23;4.45;;;1.95;;
74510;SDS011;62991;50.040;18.400;2023-08-01T16:28:24;4.05;;;2.08;;
74510;SDS011;62991;50.040;18.400;2023-08-01T16:31:25;5.53;;;2.38;;
74510;SDS011;62991;50.040;18.400;2023-08-01T16:34:26;4.85;;;1.73;;
74510;SDS011;62991;50.040;18.400;2023-08-01T16:37:28;4.85;;;1.52;;
74510;SDS011;62991;50.040;18.400;2023-08-01T16:40:29;2.97;;;1.58;;
74510;SDS011;62991;50.040;18.400;2023-08-01T16:43:30;5.63;;;2.30;;
74510;SDS011;62991;50.040;18.400;2023-08-01T16:46:30;3.58;;;1.70;;
74510;SDS011;62991;50.040;18.400;2023-08-01T16:49:31;4.03;;;1.58;;
74510;SDS011;62991;50.040;18.400;2023-08-01T16:52:32;6.63;;;2.70;;
74510;SDS011;62991;50.040;18.400;2023-08-01T16:55:32;4.72;;;1.92;;
74510;SDS011;62991;50.040;18.400;2023-08-01T16:58:33;4.65;;;1.90;;
74510;SDS011;62991;50.040;18.400;2023-08-01T17:01:34;4.57;;;1.75;;
74510;SDS011;62991;50.040;18.400;2023-08-01T17:04:38;6.93;;;2.72;;
74510;SDS011;62991;50.040;18.400;2023-08-01T17:07:39;4.13;;;2.13;;
74510;SDS011;62991;50.040;18.400;2023-08-01T17:10:39;5.28;;;2.28;;
74510;SDS011;62991;50.040;18.400;2023-08-01T17:13:40;3.95;;;1.83;;
74510;SDS011;62991;50.040;18.400;2023-08-01T17:16:41;4.25;;;1.90;;
74510;SDS011;62991;50.040;18.400;2023-08-01T17:19:41;4.00;;;1.48;;
74510;SDS011;62991;50.040;18.400;2023-08-01T17:22:42;4.07;;;2.20;;
74510;SDS011;62991;50.040;18.400;2023-08-01T17:25:43;7.20;;;2.13;;
74510;SDS011;62991;50.040;18.400;2023-08-01T17:28:44;6.22;;;2.42;;
74510;SDS011;62991;50.040;18.400;2023-08-01T17:31:44;5.65;;;1.90;;
74510;SDS011;62991;50.040;18.400;2023-08-01T17:34:45;4.35;;;1.80;;
74510;SDS011;62991;50.040;18.400;2023-08-01T17:37:46;7.60;;;1.70;;
74510;SDS011;62991;50.040;18.400;2023-08-01T17:40:56;4.75;;;1.83;;
74510;SDS011;62991;50.040;18.400;2023-08-01T17:44:04;3.13;;;1.52;;
74510;SDS011;62991;50.040;18.400;2023-08-01T17:47:05;3.95;;;1.40;;
74510;SDS011;62991;50.040;18.400;2023-08-01T17:50:06;4.22;;;1.95;;
74510;SDS011;62991;50.040;18.400;2023-08-01T17:53:06;3.53;;;1.70;;
74510;SDS011;62991;50.040;18.400;2023-08-01T17:56:07;5.05;;;1.88;;
74510;SDS011;62991;50.040;18.400;2023-08-01T17:59:08;5.78;;;2.50;;